Time;durP1;ratioP1;P1;durP2;ratioP2;P2;SDS_P1;SDS_P2;PMS_P1;PMS_P2;Temp;Humidity;BMP_temperature;BMP_pressure;BME280_temperature;BME280_humidity;BME280_pressure;Samples;Min_cycle;Max_cycle;Signal;HPM_P1;HPM_P2
2023/05/24 00:00:43;;;;;;;9.90;6.70;;;;;;;24.40;39.76;99837.77;108240;1253;71006;-64
2023/05/24 00:03:11;;;;;;;11.10;7.20;;;;;;;24.43;39.73;99833.77;108281;1256;72947;-66
2023/05/24 00:05:39;;;;;;;9.70;6.10;;;;;;;24.41;39.87;99833.98;108310;1253;61799;-64
2023/05/24 00:08:06;;;;;;;12.50;6.30;;;;;;;24.45;39.62;99830.83;108242;1253;59629;-65
2023/05/24 00:10:33;;;;;;;14.90;7.20;;;;;;;24.48;39.52;99833.48;108231;1252;73438;-65
2023/05/24 00:12:59;;;;;;;12.00;6.60;;;;;;;24.51;39.64;99832.46;108220;1252;71235;-64
2023/05/24 00:15:26;;;;;;;13.10;7.50;;;;;;;24.57;39.46;99832.98;108309;1253;73484;-63
2023/05/24 00:17:52;;;;;;;19.10;7.20;;;;;;;24.41;39.72;99835.63;108272;1252;61752;-63
2023/05/24 00:20:19;;;;;;;14.20;6.70;;;;;;;24.03;40.29;99836.45;108278;1253;60068;-62
2023/05/24 00:22:46;;;;;;;13.50;6.70;;;;;;;24.35;39.73;99837.05;108352;1252;71854;-64
2023/05/24 00:25:13;;;;;;;9.00;6.70;;;;;;;24.36;39.82;99842.10;108285;1251;59514;-63
2023/05/24 00:27:39;;;;;;;12.40;6.60;;;;;;;24.37;39.92;99839.02;108313;1251;73218;-62
2023/05/24 00:30:07;;;;;;;12.40;6.90;;;;;;;24.48;39.88;99840.79;108212;1251;61866;-63
2023/05/24 00:32:35;;;;;;;11.60;6.60;;;;;;;24.49;39.68;99839.23;108381;1251;59435;-64
2023/05/24 00:35:03;;;;;;;10.90;6.80;;;;;;;24.42;39.83;99841.20;108390;1251;72506;-65
2023/05/24 00:37:31;;;;;;;11.90;6.70;;;;;;;24.14;40.22;99839.17;108333;1251;69452;-63
2023/05/24 00:39:57;;;;;;;10.40;6.50;;;;;;;23.86;40.83;99838.27;108250;1251;60319;-64
2023/05/24 00:42:24;;;;;;;15.00;6.90;;;;;;;23.97;40.65;99837.99;108159;1251;61738;-63
2023/05/24 00:44:51;;;;;;;10.50;6.40;;;;;;;24.14;40.35;99837.33;108305;1251;60319;-63
2023/05/24 00:47:18;;;;;;;12.50;6.80;;;;;;;24.25;40.18;99834.25;108395;1251;74549;-64
2023/05/24 00:49:45;;;;;;;9.20;7.10;;;;;;;24.28;40.27;99836.55;108341;1251;70776;-64
2023/05/24 00:52:12;;;;;;;12.70;7.30;;;;;;;24.21;40.17;99834.85;108377;1251;73114;-64
2023/05/24 00:54:39;;;;;;;12.00;7.30;;;;;;;24.12;40.40;99837.16;108249;1251;60516;-62
2023/05/24 00:57:06;;;;;;;12.50;7.20;;;;;;;24.31;40.13;99833.30;108412;1254;60989;-63
2023/05/24 00:59:32;;;;;;;9.70;6.90;;;;;;;24.02;40.67;99840.35;108260;1251;74056;-64
2023/05/24 01:01:59;;;;;;;16.50;7.10;;;;;;;24.05;40.81;99839.31;108355;1251;59031;-64
2023/05/24 01:04:27;;;;;;;15.10;7.10;;;;;;;23.99;40.95;99840.05;108387;1251;73063;-64
2023/05/24 01:07:25;;;;;;;12.20;7.80;;;;;;;24.00;40.93;99839.76;108247;1251;62093;-63
2023/05/24 01:10:13;;;;;;;11.90;7.60;;;;;;;23.99;41.02;99841.29;108373;1251;60615;-63
2023/05/24 01:12:46;;;;;;;11.70;7.40;;;;;;;23.84;41.46;99839.54;108273;1251;73324;-64
2023/05/24 01:15:27;;;;;;;12.90;7.40;;;;;;;24.22;40.75;99837.30;108365;1251;69151;-64
2023/05/24 01:18:10;;;;;;;13.60;7.60;;;;;;;24.33;40.44;99839.91;108354;1251;73122;-62
2023/05/24 01:20:37;;;;;;;18.80;7.50;;;;;;;24.37;40.61;99841.20;108247;1251;61760;-62
2023/05/24 01:23:05;;;;;;;18.60;6.80;;;;;;;24.45;40.48;99840.21;108279;1256;60389;-64
2023/05/24 01:25:46;;;;;;;23.10;8.00;;;;;;;24.38;40.73;99846.09;108291;1251;74328;-63
2023/05/24 01:28:12;;;;;;;;;;;;;;;24.30;41.00;99847.75;108321;1251;69109;-65
2023/05/24 01:30:39;;;;;;;20.80;7.20;;;;;;;24.15;41.11;99849.41;108246;1251;60381;-63
2023/05/24 01:33:06;;;;;;;10.80;6.20;;;;;;;24.48;40.84;99850.65;108222;1251;61795;-63
2023/05/24 01:35:39;;;;;;;11.10;6.20;;;;;;;24.27;41.03;99854.35;108119;1251;60383;-64
2023/05/24 01:38:06;;;;;;;17.00;6.50;;;;;;;24.20;41.16;99851.25;108350;1251;74342;-65
2023/05/24 01:40:34;;;;;;;10.10;6.60;;;;;;;24.42;40.75;99848.33;108293;1251;69796;-64
2023/05/24 01:43:02;;;;;;;8.70;6.70;;;;;;;24.36;40.78;99846.80;108224;1251;72952;-64
2023/05/24 01:45:38;;;;;;;10.90;6.30;;;;;;;24.32;40.69;99849.05;108336;1251;61837;-64
2023/05/24 01:48:17;;;;;;;8.00;5.90;;;;;;;24.35;40.54;99847.77;108324;1251;60416;-63
2023/05/24 01:51:06;;;;;;;11.70;6.90;;;;;;;24.48;40.45;99846.54;108168;1251;73851;-63
2023/05/24 01:53:33;;;;;;;11.40;6.10;;;;;;;24.45;40.49;99848.83;108257;1251;70905;-62
2023/05/24 01:56:02;;;;;;;10.90;6.90;;;;;;;24.27;40.96;99849.84;108290;1251;72873;-64
2023/05/24 01:58:30;;;;;;;13.20;6.60;;;;;;;24.19;41.18;99847.44;108338;1251;61635;-63
2023/05/24 02:00:56;;;;;;;12.00;6.70;;;;;;;24.27;41.09;99848.41;108238;1253;60324;-64
2023/05/24 02:03:25;;;;;;;9.30;6.50;;;;;;;24.25;41.09;99850.11;108108;1253;73545;-66
2023/05/24 02:05:52;;;;;;;11.10;7.00;;;;;;;24.13;41.33;99852.67;107874;1255;69243;-66
2023/05/24 02:08:18;;;;;;;13.70;6.50;;;;;;;24.30;41.15;99854.75;107895;1259;72563;-67
2023/05/24 02:10:45;;;;;;;10.00;6.90;;;;;;;24.19;41.43;99855.30;107859;1255;63223;-66
2023/05/24 02:13:12;;;;;;;9.10;6.60;;;;;;;24.21;41.50;99853.86;107877;1257;60631;-65
2023/05/24 02:15:40;;;;;;;9.90;6.30;;;;;;;24.31;41.29;99857.52;107743;1257;73878;-66
2023/05/24 02:18:11;;;;;;;9.20;6.10;;;;;;;24.22;41.44;99857.42;107753;1257;70365;-66
2023/05/24 02:20:39;;;;;;;10.50;5.70;;;;;;;24.07;41.68;99859.55;107641;1257;72864;-65
2023/05/24 02:23:06;;;;;;;9.10;5.60;;;;;;;23.99;41.71;99862.27;107558;1257;62116;-65
2023/05/24 02:25:33;;;;;;;8.90;5.80;;;;;;;24.08;41.54;99862.13;107735;1257;61179;-67
2023/05/24 02:28:01;;;;;;;8.60;6.10;;;;;;;23.90;41.85;99863.03;107738;1257;74230;-68
2023/05/24 02:30:28;;;;;;;9.70;6.00;;;;;;;24.02;41.84;99867.69;107689;1257;70168;-67
2023/05/24 02:32:55;;;;;;;9.90;7.00;;;;;;;24.19;41.66;99870.40;107686;1261;71470;-67
2023/05/24 02:35:22;;;;;;;8.80;6.30;;;;;;;23.97;41.80;99867.89;107632;1257;61726;-65
2023/05/24 02:37:48;;;;;;;12.40;6.30;;;;;;;23.97;42.07;99871.96;107645;1258;60637;-65
2023/05/24 02:40:15;;;;;;;12.80;6.20;;;;;;;24.01;42.13;99870.52;107632;1258;74029;-67
2023/05/24 02:42:41;;;;;;;12.60;6.30;;;;;;;23.95;42.14;99868.48;107664;1258;70456;-65
2023/05/24 02:45:09;;;;;;;13.80;6.50;;;;;;;24.07;42.04;99867.55;107673;1258;72657;-66
2023/05/24 02:47:36;;;;;;;11.10;6.70;;;;;;;24.04;42.23;99870.95;107594;1258;61873;-66
2023/05/24 02:50:03;;;;;;;13.10;6.50;;;;;;;24.01;42.31;99865.80;107654;1260;60381;-66
2023/05/24 02:52:31;;;;;;;13.50;6.80;;;;;;;24.29;41.99;99865.13;107688;1258;73520;-67
2023/05/24 02:54:58;;;;;;;18.40;6.60;;;;;;;24.08;42.30;99869.64;107679;1258;70713;-66
2023/05/24 02:57:27;;;;;;;17.40;7.20;;;;;;;24.03;42.71;99872.52;107586;1258;72478;-67
2023/05/24 02:59:54;;;;;;;10.30;7.60;;;;;;;24.14;42.71;99872.91;107619;1257;64075;-67
2023/05/24 03:02:21;;;;;;;9.60;7.50;;;;;;;24.22;42.53;99870.45;107671;1258;60587;-66
2023/05/24 03:04:49;;;;;;;14.70;6.60;;;;;;;24.20;42.69;99873.31;107547;1258;74239;-65
2023/05/24 03:07:16;;;;;;;10.10;6.90;;;;;;;24.00;43.01;99871.87;107566;1258;70562;-66
2023/05/24 03:09:42;;;;;;;14.20;8.00;;;;;;;24.04;43.19;99869.30;107557;1258;72735;-69
2023/05/24 03:12:09;;;;;;;11.60;6.50;;;;;;;24.42;42.60;99868.27;107522;1258;61990;-66
2023/05/24 03:14:37;;;;;;;10.50;7.00;;;;;;;24.78;41.82;99867.20;107552;1258;60503;-67
2023/05/24 03:17:05;;;;;;;10.40;6.60;;;;;;;25.33;41.17;99867.60;107639;1258;74021;-67
2023/05/24 03:19:33;;;;;;;12.20;6.70;;;;;;;25.71;40.30;99864.33;107597;1260;70950;-70
2023/05/24 03:21:59;;;;;;;9.00;6.40;;;;;;;25.80;40.17;99865.79;107647;1258;73110;-65
2023/05/24 03:24:26;;;;;;;12.30;5.60;;;;;;;25.78;40.24;99871.17;107568;1258;61774;-67
2023/05/24 03:26:53;;;;;;;15.00;6.50;;;;;;;26.04;39.53;99871.90;107772;1257;60324;-67
2023/05/24 03:29:20;;;;;;;7.30;5.30;;;;;;;26.05;39.57;99873.38;107675;1257;74093;-68
2023/05/24 03:31:47;;;;;;;13.00;6.50;;;;;;;26.01;39.65;99875.26;107735;1257;70338;-67
2023/05/24 03:34:14;;;;;;;11.00;6.50;;;;;;;25.98;39.80;99874.50;107786;1257;72848;-66
2023/05/24 03:36:41;;;;;;;10.80;6.10;;;;;;;26.17;39.56;99876.50;107565;1258;62193;-66
2023/05/24 03:39:08;;;;;;;15.10;6.30;;;;;;;26.29;39.09;99874.44;107659;1257;60397;-67
2023/05/24 03:41:49;;;;;;;10.20;6.10;;;;;;;26.15;39.34;99874.72;107654;1257;74262;-66
2023/05/24 03:44:15;;;;;;;12.30;6.70;;;;;;;26.25;39.33;99879.05;107659;1262;70697;-67
2023/05/24 03:46:42;;;;;;;11.50;5.80;;;;;;;26.27;39.26;99875.78;107587;1257;73599;-66
2023/05/24 03:49:12;;;;;;;7.80;5.60;;;;;;;26.30;39.36;99880.18;107659;1257;61720;-66
2023/05/24 03:51:39;;;;;;;13.70;6.30;;;;;;;26.47;38.89;99876.49;107568;1257;60992;-65
2023/05/24 03:54:06;;;;;;;9.60;5.50;;;;;;;26.51;38.86;99876.55;107667;1257;73881;-67
2023/05/24 03:56:33;;;;;;;8.10;5.80;;;;;;;26.50;38.76;99882.65;107644;1257;71200;-67
2023/05/24 03:59:02;;;;;;;9.40;6.20;;;;;;;26.52;38.94;99886.94;107583;1263;72702;-67
2023/05/24 04:01:32;;;;;;;10.70;6.20;;;;;;;26.54;38.96;99888.01;107695;1257;60721;-67
2023/05/24 04:04:02;;;;;;;10.00;6.20;;;;;;;26.34;39.25;99887.61;107645;1257;60354;-66
2023/05/24 04:06:29;;;;;;;13.40;6.30;;;;;;;26.14;39.70;99887.58;107657;1257;73847;-66
2023/05/24 04:08:57;;;;;;;11.00;6.60;;;;;;;26.04;39.99;99893.98;107682;1257;70107;-65
2023/05/24 04:11:27;;;;;;;16.90;6.50;;;;;;;25.80;40.44;99893.08;107660;1257;72731;-65
2023/05/24 04:13:59;;;;;;;17.60;6.80;;;;;;;25.49;41.19;99894.34;107687;1257;61914;-66
2023/05/24 04:16:26;;;;;;;8.30;5.90;;;;;;;25.80;40.65;99893.98;107650;1257;60397;-67
2023/05/24 04:18:55;;;;;;;9.40;6.30;;;;;;;25.68;40.55;99891.31;107682;1257;71886;-68
2023/05/24 04:21:24;;;;;;;14.10;7.20;;;;;;;25.91;40.48;99890.76;107693;1258;71653;-67
2023/05/24 04:23:52;;;;;;;16.60;6.80;;;;;;;26.05;40.28;99891.36;107620;1257;71615;-68
2023/05/24 04:26:20;;;;;;;10.60;6.20;;;;;;;26.07;40.44;99894.09;107589;1257;61854;-66
2023/05/24 04:28:47;;;;;;;15.20;5.90;;;;;;;26.11;40.47;99893.39;107706;1257;59973;-66
2023/05/24 04:31:15;;;;;;;11.30;6.60;;;;;;;26.14;40.15;99892.94;107640;1257;74274;-68
2023/05/24 04:33:42;;;;;;;8.40;6.00;;;;;;;26.22;40.31;99893.38;107725;1257;70427;-66
2023/05/24 04:36:10;;;;;;;9.80;6.10;;;;;;;26.46;40.22;99893.13;107712;1258;73712;-67
2023/05/24 04:38:38;;;;;;;9.20;6.30;;;;;;;26.75;40.04;99890.89;107649;1262;60544;-65
2023/05/24 04:41:04;;;;;;;10.00;6.30;;;;;;;27.22;39.48;99893.71;107702;1257;63189;-66
2023/05/24 04:43:33;;;;;;;13.30;6.50;;;;;;;27.69;38.59;99901.09;107761;1257;73842;-67
2023/05/24 04:46:02;;;;;;;9.50;5.80;;;;;;;27.86;38.25;99904.78;107673;1257;70338;-66
2023/05/24 04:48:29;;;;;;;7.60;5.40;;;;;;;27.95;38.28;99903.40;107665;1257;72680;-66
2023/05/24 04:50:57;;;;;;;17.70;7.30;;;;;;;28.23;38.02;99906.39;107692;1257;62400;-68
2023/05/24 04:53:24;;;;;;;13.20;6.10;;;;;;;29.02;36.86;99911.98;107714;1257;60420;-66
2023/05/24 04:55:51;;;;;;;9.90;6.10;;;;;;;29.39;36.10;99910.09;107675;1258;74416;-67
2023/05/24 04:58:18;;;;;;;10.60;6.00;;;;;;;29.54;35.77;99913.46;107713;1257;70402;-68
2023/05/24 05:00:44;;;;;;;16.40;6.50;;;;;;;29.67;35.74;99912.20;107643;1257;60525;-68
2023/05/24 05:03:11;;;;;;;10.60;6.30;;;;;;;29.74;35.49;99913.18;107692;1257;62101;-68
2023/05/24 05:05:38;;;;;;;16.70;6.40;;;;;;;29.94;35.23;99914.54;107666;1261;60959;-67
2023/05/24 05:08:05;;;;;;;13.30;6.00;;;;;;;30.13;34.89;99916.15;107699;1257;72696;-68
2023/05/24 05:10:32;;;;;;;23.10;6.60;;;;;;;30.48;34.22;99913.41;107681;1261;70708;-68
2023/05/24 05:12:59;;;;;;;19.10;6.20;;;;;;;30.46;34.35;99914.30;107696;1257;73235;-66
2023/05/24 05:15:28;;;;;;;16.20;7.40;;;;;;;30.84;33.74;99914.31;107721;1257;60404;-67
2023/05/24 05:17:56;;;;;;;20.50;9.00;;;;;;;31.22;32.99;99909.39;107680;1257;60872;-68
2023/05/24 05:20:23;;;;;;;20.30;9.10;;;;;;;31.68;32.87;99913.11;107692;1257;73915;-68
2023/05/24 05:22:50;;;;;;;16.30;7.90;;;;;;;32.37;31.56;99907.24;107680;1257;69050;-68
2023/05/24 05:25:16;;;;;;;12.70;6.50;;;;;;;32.76;31.14;99904.98;107628;1257;72716;-66
2023/05/24 05:27:43;;;;;;;15.10;6.00;;;;;;;33.14;30.86;99907.60;107640;1257;60317;-67
2023/05/24 05:30:11;;;;;;;12.20;6.00;;;;;;;33.71;30.04;99900.54;107626;1258;60354;-68
2023/05/24 05:32:38;;;;;;;19.10;5.70;;;;;;;34.34;29.29;99901.53;107586;1258;72901;-68
2023/05/24 05:35:06;;;;;;;9.60;4.20;;;;;;;34.64;28.68;99901.89;107610;1258;61573;-66
2023/05/24 05:37:33;;;;;;;10.40;4.40;;;;;;;35.01;28.20;99904.10;107730;1258;62679;-67
2023/05/24 05:39:59;;;;;;;12.10;4.60;;;;;;;35.29;27.72;99906.08;107633;1258;60301;-66
2023/05/24 05:42:26;;;;;;;8.90;4.20;;;;;;;35.28;27.17;99908.20;107725;1258;60452;-68
2023/05/24 05:44:53;;;;;;;7.20;4.50;;;;;;;35.45;27.41;99916.85;107610;1258;65302;-68
2023/05/24 05:47:19;;;;;;;8.60;4.30;;;;;;;35.77;26.78;99920.25;107649;1258;60528;-68
2023/05/24 05:49:46;;;;;;;13.90;5.00;;;;;;;36.11;26.51;99919.77;107653;1258;64114;-68
2023/05/24 05:52:12;;;;;;;16.10;5.40;;;;;;;36.39;26.21;99918.88;107595;1258;59458;-66
2023/05/24 05:54:39;;;;;;;13.50;4.10;;;;;;;36.54;25.38;99923.14;107632;1258;60549;-65
2023/05/24 05:57:09;;;;;;;8.20;3.30;;;;;;;36.57;25.33;99924.01;107650;1258;65211;-69
2023/05/24 05:59:37;;;;;;;7.90;3.40;;;;;;;36.72;25.19;99926.02;107662;1258;61619;-67
2023/05/24 06:02:05;;;;;;;5.60;2.50;;;;;;;36.79;24.62;99928.17;107644;1258;63896;-66
2023/05/24 06:04:32;;;;;;;8.80;3.00;;;;;;;36.86;24.39;99928.86;107698;1258;60328;-67
2023/05/24 06:06:59;;;;;;;5.80;3.10;;;;;;;37.10;24.19;99927.88;107714;1258;59384;-67
2023/05/24 06:09:28;;;;;;;9.20;3.00;;;;;;;37.56;24.18;99924.58;107649;1258;63930;-68
2023/05/24 06:11:54;;;;;;;10.10;3.50;;;;;;;37.90;23.48;99924.30;107709;1262;61643;-67
2023/05/24 06:14:21;;;;;;;10.70;2.80;;;;;;;37.86;23.47;99926.08;107650;1258;63907;-67
2023/05/24 06:16:48;;;;;;;11.20;3.10;;;;;;;37.84;23.35;99925.39;107666;1262;60299;-68
2023/05/24 06:19:15;;;;;;;13.00;2.90;;;;;;;38.02;23.17;99922.64;107691;1258;60459;-68
2023/05/24 06:21:46;;;;;;;4.20;2.70;;;;;;;38.41;22.60;99920.40;107519;1258;65064;-69
2023/05/24 06:24:14;;;;;;;8.70;2.80;;;;;;;38.89;21.99;99916.58;107671;1258;61650;-67
2023/05/24 06:26:44;;;;;;;10.00;2.80;;;;;;;39.10;21.64;99916.29;107699;1258;65024;-70
2023/05/24 06:29:11;;;;;;;6.90;2.70;;;;;;;39.28;21.64;99919.66;107683;1257;59040;-70
2023/05/24 06:31:38;;;;;;;6.70;2.40;;;;;;;39.72;21.12;99920.80;107675;1261;60353;-70
2023/05/24 06:34:05;;;;;;;6.90;2.40;;;;;;;39.86;20.76;99921.22;107621;1257;65380;-70
2023/05/24 06:36:34;;;;;;;8.00;2.80;;;;;;;39.74;20.47;99920.00;107710;1257;61665;-69
2023/05/24 06:39:01;;;;;;;7.50;2.30;;;;;;;39.54;20.40;99919.32;107712;1258;71453;-69
2023/05/24 06:41:28;;;;;;;9.70;2.40;;;;;;;39.48;20.68;99915.75;107715;1257;60393;-69
2023/05/24 06:43:55;;;;;;;6.00;2.80;;;;;;;39.83;20.56;99918.02;107668;1261;60379;-67
2023/05/24 06:46:22;;;;;;;9.60;3.30;;;;;;;40.22;20.30;99919.59;107689;1257;64040;-68
2023/05/24 06:48:48;;;;;;;10.90;3.00;;;;;;;40.12;20.25;99922.55;107692;1257;61738;-67
2023/05/24 06:51:16;;;;;;;13.90;3.30;;;;;;;39.95;20.14;99922.57;107717;1257;64077;-68
2023/05/24 06:53:42;;;;;;;12.60;3.20;;;;;;;39.95;19.94;99923.11;107684;1257;60360;-68
2023/05/24 06:56:09;;;;;;;10.10;3.30;;;;;;;40.06;19.67;99921.65;107733;1257;60437;-69
2023/05/24 06:58:36;;;;;;;10.00;3.70;;;;;;;40.18;19.76;99920.36;107721;1257;64994;-69
2023/05/24 07:01:03;;;;;;;11.60;3.30;;;;;;;40.34;19.66;99916.09;107689;1257;60450;-68
2023/05/24 07:03:30;;;;;;;11.30;3.20;;;;;;;40.01;19.82;99919.22;107717;1261;64011;-68
2023/05/24 07:05:57;;;;;;;7.80;2.80;;;;;;;39.98;19.83;99920.83;107655;1257;60499;-69
2023/05/24 07:08:24;;;;;;;9.90;3.00;;;;;;;40.24;19.39;99925.18;107636;1257;60311;-68
2023/05/24 07:10:54;;;;;;;10.10;3.40;;;;;;;40.62;18.81;99926.95;107714;1258;65023;-68
2023/05/24 07:13:21;;;;;;;;;;;;;;;40.69;18.66;99930.69;107700;1257;60465;-68
2023/05/24 07:15:50;;;;;;;10.20;2.70;;;;;;;39.85;18.27;99931.75;107610;1263;64156;-67
2023/05/24 07:18:17;;;;;;;8.10;2.50;;;;;;;39.19;18.76;99928.95;107687;1257;60450;-68
2023/05/24 07:20:43;;;;;;;6.30;2.40;;;;;;;39.10;19.03;99930.54;107698;1257;60423;-68
2023/05/24 07:23:11;;;;;;;6.80;2.30;;;;;;;39.54;18.63;99929.35;107698;1258;65333;-67
2023/05/24 07:25:37;;;;;;;7.30;2.20;;;;;;;40.04;18.44;99931.34;107651;1257;61476;-69
2023/05/24 07:28:04;;;;;;;5.00;2.70;;;;;;;40.07;18.89;99926.85;107677;1258;63780;-69
2023/05/24 07:30:31;;;;;;;11.70;2.90;;;;;;;40.34;18.81;99930.29;107626;1257;59097;-68
2023/05/24 07:32:59;;;;;;;7.80;2.80;;;;;;;40.06;19.03;99926.77;107662;1257;60399;-68
2023/05/24 07:35:28;;;;;;;8.10;2.40;;;;;;;39.50;19.52;99926.40;107624;1258;65290;-67
2023/05/24 07:37:55;;;;;;;7.00;2.10;;;;;;;39.23;19.47;99922.77;107799;1257;61595;-66
2023/05/24 07:40:22;;;;;;;10.00;3.00;;;;;;;39.61;19.43;99922.50;107745;1258;64156;-68
2023/05/24 07:42:48;;;;;;;8.50;2.70;;;;;;;40.23;19.25;99925.22;107643;1261;60328;-68
2023/05/24 07:45:15;;;;;;;6.40;2.40;;;;;;;40.30;18.87;99933.38;107673;1261;60452;-68
2023/05/24 07:47:42;;;;;;;10.30;2.70;;;;;;;40.35;18.87;99935.70;107674;1258;65008;-67
2023/05/24 07:50:09;;;;;;;16.10;2.80;;;;;;;40.11;18.92;99937.38;107691;1257;61835;-68
2023/05/24 07:52:37;;;;;;;6.10;2.30;;;;;;;39.75;19.16;99935.45;107666;1258;64259;-68
2023/05/24 07:55:05;;;;;;;5.80;2.50;;;;;;;39.32;19.16;99928.27;107665;1257;60374;-67
2023/05/24 07:57:32;;;;;;;13.40;2.90;;;;;;;38.89;19.75;99927.80;107682;1257;60308;-67
2023/05/24 08:00:05;;;;;;;5.50;3.00;;;;;;;38.71;20.83;99933.67;107655;1257;64099;-68
2023/05/24 08:02:37;;;;;;;11.40;2.80;;;;;;;38.73;20.74;99933.71;107635;1257;61525;-68
2023/05/24 08:05:05;;;;;;;7.30;3.10;;;;;;;38.86;20.87;99933.73;107655;1263;62904;-68
2023/05/24 08:07:32;;;;;;;6.40;2.80;;;;;;;38.99;21.13;99934.43;107704;1259;60398;-69
2023/05/24 08:09:58;;;;;;;7.90;2.70;;;;;;;38.93;21.18;99940.80;107704;1257;60478;-68
2023/05/24 08:12:25;;;;;;;7.60;2.50;;;;;;;38.88;21.31;99942.25;107686;1258;65182;-69
2023/05/24 08:14:52;;;;;;;8.80;2.90;;;;;;;38.81;21.33;99946.48;107725;1261;60494;-69
2023/05/24 08:17:18;;;;;;;4.00;2.60;;;;;;;38.92;21.32;99942.85;107657;1258;62956;-65
2023/05/24 08:19:45;;;;;;;6.20;2.50;;;;;;;39.01;21.16;99940.80;107677;1258;61023;-67
2023/05/24 08:22:11;;;;;;;10.70;2.90;;;;;;;38.91;20.99;99941.10;107712;1257;60418;-67
2023/05/24 08:24:38;;;;;;;8.00;2.70;;;;;;;38.76;21.03;99940.66;107685;1257;65101;-69
2023/05/24 08:27:06;;;;;;;8.00;2.80;;;;;;;38.66;21.15;99939.93;107671;1257;61507;-70
2023/05/24 08:29:34;;;;;;;8.70;2.90;;;;;;;38.63;21.18;99941.64;107773;1257;63836;-70
2023/05/24 08:32:01;;;;;;;7.30;2.90;;;;;;;38.43;21.40;99940.24;107716;1258;60429;-69
2023/05/24 08:34:29;;;;;;;6.50;2.70;;;;;;;38.21;21.58;99936.69;107766;1258;60422;-70
2023/05/24 08:36:55;;;;;;;11.60;3.20;;;;;;;38.16;22.19;99930.77;107659;1258;60449;-70
2023/05/24 08:39:22;;;;;;;9.10;2.70;;;;;;;38.32;22.93;99930.20;107684;1258;60399;-69
2023/05/24 08:41:49;;;;;;;18.50;3.10;;;;;;;38.49;24.05;99932.00;107642;1257;63883;-67
2023/05/24 08:44:39;;;;;;;6.50;3.20;;;;;;;38.38;23.90;99928.59;107625;1258;60417;-71
2023/05/24 08:47:08;;;;;;;7.80;3.00;;;;;;;38.07;23.07;99927.75;107510;1263;262877;-70
2023/05/24 08:51:22;;;;;;;9.50;2.50;;;;;;;34.89;26.18;99929.68;105010;1293;600567;-69
2023/05/24 08:53:49;;;;;;;4.90;2.60;;;;;;;36.22;24.15;99924.36;107277;1267;59165;-68
2023/05/24 08:56:17;;;;;;;6.00;2.70;;;;;;;36.60;23.73;99924.98;107274;1264;59139;-69
2023/05/24 08:58:45;;;;;;;6.30;2.80;;;;;;;37.04;23.23;99923.15;107358;1271;63289;-69
2023/05/24 09:01:15;;;;;;;8.10;2.90;;;;;;;37.51;22.77;99927.20;107364;1264;61339;-70
2023/05/24 09:03:45;;;;;;;7.90;2.80;;;;;;;37.41;22.67;99926.06;107348;1264;62535;-69
2023/05/24 09:06:15;;;;;;;8.60;2.40;;;;;;;37.38;22.51;99926.50;107216;1264;236331;-69
2023/05/24 09:08:44;;;;;;;5.20;2.40;;;;;;;37.30;22.52;99920.91;107910;1257;59020;-67
2023/05/24 09:11:11;;;;;;;6.30;2.40;;;;;;;37.33;22.47;99915.77;108144;1254;62171;-68
2023/05/24 09:13:39;;;;;;;12.60;3.10;;;;;;;37.32;22.54;99917.14;107888;1254;61427;-68
2023/05/24 09:16:06;;;;;;;9.50;2.50;;;;;;;37.11;22.37;99922.75;107961;1254;62630;-70
2023/05/24 09:18:35;;;;;;;5.70;2.40;;;;;;;37.19;21.83;99923.16;107921;1254;59719;-69
2023/05/24 09:21:02;;;;;;;4.80;2.40;;;;;;;37.24;21.69;99926.44;108045;1254;60052;-69
2023/05/24 09:23:29;;;;;;;5.60;2.50;;;;;;;37.47;21.35;99925.62;107963;1254;62857;-68
2023/05/24 09:25:57;;;;;;;7.30;2.00;;;;;;;37.94;20.95;99924.01;107910;1256;60263;-68
2023/05/24 09:28:24;;;;;;;6.20;2.40;;;;;;;38.48;20.35;99923.73;107720;1257;64371;-69
2023/05/24 09:31:03;;;;;;;8.60;2.20;;;;;;;39.14;19.86;99919.92;107894;1262;59504;-68
2023/05/24 09:33:34;;;;;;;5.50;2.10;;;;;;;39.83;19.07;99921.17;107874;1257;59537;-69
2023/05/24 09:36:03;;;;;;;9.40;2.60;;;;;;;40.29;18.68;99926.36;107868;1256;63426;-69
2023/05/24 09:38:30;;;;;;;5.90;2.10;;;;;;;40.69;18.27;99927.95;107861;1257;62074;-67
2023/05/24 09:40:59;;;;;;;6.40;2.20;;;;;;;41.64;17.39;99925.59;107897;1256;74973;-67
2023/05/24 09:43:30;;;;;;;5.00;2.10;;;;;;;42.14;17.17;99929.56;107705;1257;59539;-69
2023/05/24 09:45:59;;;;;;;5.30;2.20;;;;;;;41.43;17.19;99930.63;107915;1255;59524;-68
2023/05/24 09:48:30;;;;;;;6.10;2.10;;;;;;;41.23;17.60;99930.49;107702;1255;62935;-70
2023/05/24 09:51:10;;;;;;;10.40;2.80;;;;;;;41.17;18.23;99936.13;107685;1256;61703;-69
2023/05/24 09:53:38;;;;;;;4.90;2.00;;;;;;;41.06;18.80;99942.04;107806;1257;64242;-68
2023/05/24 09:56:07;;;;;;;6.30;2.00;;;;;;;40.90;19.17;99937.90;107680;1256;59588;-67
2023/05/24 09:58:35;;;;;;;4.30;2.20;;;;;;;40.35;19.21;99944.63;107896;1255;59026;-68
2023/05/24 10:01:06;;;;;;;5.20;2.30;;;;;;;40.35;19.21;99946.17;107937;1257;62935;-69
2023/05/24 10:03:36;;;;;;;6.50;2.10;;;;;;;40.32;19.15;99950.49;107689;1257;63277;-68
2023/05/24 10:06:06;;;;;;;5.00;2.30;;;;;;;40.15;19.23;99951.62;107795;1257;63815;-68
2023/05/24 10:08:35;;;;;;;7.20;2.60;;;;;;;40.01;19.71;99950.81;107867;1260;59640;-70
2023/05/24 10:11:03;;;;;;;5.00;2.10;;;;;;;40.20;19.61;99948.20;107764;1261;59158;-68
2023/05/24 10:13:32;;;;;;;7.30;2.80;;;;;;;40.40;19.69;99950.11;107832;1256;64760;-69
2023/05/24 10:16:00;;;;;;;5.30;2.30;;;;;;;40.24;20.08;99953.38;107860;1261;62737;-68
2023/05/24 10:18:27;;;;;;;6.90;2.30;;;;;;;40.01;20.08;99950.60;107800;1257;62505;-69
2023/05/24 10:20:58;;;;;;;4.90;2.30;;;;;;;39.68;20.41;99951.05;107850;1257;59433;-68
2023/05/24 10:23:28;;;;;;;4.60;2.20;;;;;;;39.36;20.13;99949.73;107835;1261;59456;-68
2023/05/24 10:26:16;;;;;;;7.10;2.20;;;;;;;39.53;19.81;99953.13;107848;1256;64551;-67
2023/05/24 10:28:53;;;;;;;4.90;2.50;;;;;;;39.17;20.14;99944.30;107876;1257;60100;-69
2023/05/24 10:31:24;;;;;;;7.10;2.10;;;;;;;39.18;19.84;99946.32;107791;1257;63966;-70
2023/05/24 10:33:51;;;;;;;7.90;2.00;;;;;;;39.32;18.74;99942.75;107775;1257;59532;-72
2023/05/24 10:36:25;;;;;;;4.30;2.20;;;;;;;39.45;17.84;99945.02;107760;1261;60125;-71
2023/05/24 10:38:53;;;;;;;4.40;1.70;;;;;;;39.76;17.63;99943.23;107770;1257;62873;-70
2023/05/24 10:41:21;;;;;;;4.90;2.00;;;;;;;40.31;17.38;99945.02;107794;1256;61348;-68
2023/05/24 10:43:48;;;;;;;4.60;1.50;;;;;;;40.87;16.71;99945.83;107775;1256;63751;-68
2023/05/24 10:46:33;;;;;;;4.40;1.30;;;;;;;41.42;15.87;99945.48;107679;1257;59614;-70
2023/05/24 10:49:03;;;;;;;2.50;1.40;;;;;;;41.80;15.08;99945.49;107850;1256;59531;-68
2023/05/24 10:51:37;;;;;;;3.90;1.40;;;;;;;41.55;14.93;99939.67;107770;1257;64688;-69
2023/05/24 10:54:18;;;;;;;4.40;1.40;;;;;;;41.41;15.29;99940.02;107892;1256;60226;-68
2023/05/24 10:56:47;;;;;;;4.70;1.60;;;;;;;41.57;15.24;99939.86;107846;1257;63829;-69
2023/05/24 10:59:33;;;;;;;10.50;1.70;;;;;;;41.71;14.80;99941.23;108140;1256;59068;-67
2023/05/24 11:02:08;;;;;;;12.10;2.20;;;;;;;41.87;14.87;99948.46;108308;1257;59618;-67
2023/05/24 11:04:38;;;;;;;6.00;1.90;;;;;;;41.97;15.69;99953.28;108230;1262;62873;-68
2023/05/24 11:07:08;;;;;;;4.30;1.90;;;;;;;41.99;15.93;99951.80;107934;1257;61310;-67
2023/05/24 11:09:44;;;;;;;8.90;2.30;;;;;;;41.96;16.59;99955.98;107987;1257;62503;-68
2023/05/24 11:12:19;;;;;;;6.90;2.00;;;;;;;41.81;16.85;99963.70;107848;1257;59448;-69
2023/05/24 11:14:48;;;;;;;7.20;2.00;;;;;;;41.52;17.11;99963.09;107871;1257;59372;-69
2023/05/24 11:17:20;;;;;;;3.30;1.80;;;;;;;41.09;17.58;99969.79;107894;1257;63164;-71
2023/05/24 11:19:53;;;;;;;8.30;2.20;;;;;;;41.08;17.96;99970.28;107881;1257;61704;-70
2023/05/24 11:22:22;;;;;;;7.30;2.20;;;;;;;41.19;17.78;99970.29;107856;1256;63863;-69
2023/05/24 11:24:51;;;;;;;5.50;1.90;;;;;;;41.20;17.05;99962.84;107961;1260;60030;-71
2023/05/24 11:27:19;;;;;;;4.40;2.20;;;;;;;41.09;17.05;99955.55;107852;1257;59570;-69
2023/05/24 11:29:47;;;;;;;4.40;1.40;;;;;;;40.95;16.61;99951.39;107918;1257;64093;-68